Time;durP1;ratioP1;P1;durP2;ratioP2;P2;SDS_P1;SDS_P2;PMS_P1;PMS_P2;Temp;Humidity;BMP_temperature;BMP_pressure;BME280_temperature;BME280_humidity;BME280_pressure;Samples;Min_cycle;Max_cycle;Signal;HPM_P1;HPM_P2
2020/12/21 00:02:14;;;;;;;;;56.67;47.33;;;;;;;;5066541;28;8846;-76
2020/12/21 00:04:40;;;;;;;;;60.00;49.33;;;;;;;;5066069;28;8977;-77
2020/12/21 00:07:06;;;;;;;;;61.67;49.67;;;;;;;;5066587;28;8850;-76
2020/12/21 00:09:32;;;;;;;;;62.00;48.00;;;;;;;;5065836;28;8858;-76
2020/12/21 00:11:58;;;;;;;;;61.33;49.00;;;;;;;;5066360;28;8865;-75
2020/12/21 00:14:23;;;;;;;;;62.00;49.00;;;;;;;;5066112;28;8846;-74
2020/12/21 00:16:50;;;;;;;;;57.67;47.00;;;;;;;;5065892;28;8864;-76
2020/12/21 00:19:19;;;;;;;;;57.33;48.00;;;;;;;;5066166;28;8943;-76
2020/12/21 00:21:45;;;;;;;;;60.00;46.00;;;;;;;;5056167;28;8846;-76
2020/12/21 00:24:11;;;;;;;;;56.67;46.33;;;;;;;;5052970;28;8958;-76
2020/12/21 00:26:37;;;;;;;;;59.67;49.00;;;;;;;;5052414;28;9049;-76
2020/12/21 00:29:04;;;;;;;;;58.00;46.33;;;;;;;;5052909;28;9048;-75
2020/12/21 00:31:31;;;;;;;;;56.00;46.00;;;;;;;;5052555;28;8953;-76
2020/12/21 00:33:57;;;;;;;;;58.67;44.67;;;;;;;;5052840;28;9695;-76
2020/12/21 00:36:24;;;;;;;;;55.67;46.00;;;;;;;;5052524;28;8842;-76
2020/12/21 00:38:50;;;;;;;;;55.00;46.33;;;;;;;;5052473;28;8972;-75
2020/12/21 00:41:17;;;;;;;;;58.67;48.33;;;;;;;;5052799;28;8846;-75
2020/12/21 00:43:45;;;;;;;;;55.67;47.00;;;;;;;;5052269;28;8834;-74
2020/12/21 00:46:12;;;;;;;;;57.67;47.67;;;;;;;;5052402;28;8837;-76
2020/12/21 00:48:38;;;;;;;;;58.67;47.00;;;;;;;;5052504;28;8853;-77
2020/12/21 00:51:04;;;;;;;;;57.67;46.00;;;;;;;;5052230;28;8846;-75
2020/12/21 00:53:30;;;;;;;;;52.67;46.33;;;;;;;;5052100;28;9649;-75
2020/12/21 00:55:56;;;;;;;;;61.33;49.33;;;;;;;;5052401;28;8973;-75
2020/12/21 00:58:22;;;;;;;;;51.33;43.67;;;;;;;;5052331;28;8851;-74
2020/12/21 01:00:48;;;;;;;;;61.33;49.33;;;;;;;;5052267;28;8854;-75
2020/12/21 01:03:15;;;;;;;;;58.33;49.33;;;;;;;;5048046;28;8851;-75
2020/12/21 01:05:41;;;;;;;;;58.00;50.00;;;;;;;;5051793;28;8957;-76
2020/12/21 01:08:06;;;;;;;;;59.67;46.67;;;;;;;;5051969;28;8842;-76
2020/12/21 01:10:33;;;;;;;;;52.00;44.00;;;;;;;;5051732;28;9583;-77
2020/12/21 01:12:59;;;;;;;;;54.67;44.00;;;;;;;;5052013;28;8966;-75
2020/12/21 01:15:25;;;;;;;;;59.00;45.33;;;;;;;;5051949;28;9558;-76
2020/12/21 01:17:51;;;;;;;;;53.00;46.33;;;;;;;;5051991;28;8851;-75
2020/12/21 01:20:17;;;;;;;;;58.00;48.67;;;;;;;;5051928;28;8827;-75
2020/12/21 01:22:43;;;;;;;;;49.00;43.67;;;;;;;;5051776;28;8920;-76
2020/12/21 01:25:09;;;;;;;;;50.33;40.67;;;;;;;;5052101;28;8965;-75
2020/12/21 01:27:35;;;;;;;;;57.25;47.25;;;;;;;;5051555;28;8915;-75
2020/12/21 01:30:03;;;;;;;;;56.67;45.00;;;;;;;;5051514;28;8961;-74
2020/12/21 01:32:29;;;;;;;;;59.25;47.75;;;;;;;;5050624;28;8855;-76
2020/12/21 01:34:55;;;;;;;;;56.25;47.00;;;;;;;;5051384;28;8873;-75
2020/12/21 01:37:21;;;;;;;;;52.75;42.00;;;;;;;;5051548;28;8839;-76
2020/12/21 01:39:48;;;;;;;;;59.50;47.50;;;;;;;;5051080;28;8846;-76
2020/12/21 01:42:15;;;;;;;;;58.25;46.75;;;;;;;;5047639;28;8838;-75
2020/12/21 01:44:42;;;;;;;;;28.25;21.25;;;;;;;;5051403;28;8811;-74
2020/12/21 01:47:08;;;;;;;;;62.50;48.75;;;;;;;;5051321;28;8843;-74
2020/12/21 01:49:34;;;;;;;;;59.75;50.25;;;;;;;;5050841;28;8923;-75
2020/12/21 01:52:00;;;;;;;;;57.67;46.67;;;;;;;;5051552;28;8880;-74
2020/12/21 01:54:26;;;;;;;;;52.33;44.00;;;;;;;;5050764;28;9551;-74
2020/12/21 01:56:53;;;;;;;;;59.00;48.00;;;;;;;;5051225;28;8839;-75
2020/12/21 01:59:19;;;;;;;;;59.00;48.67;;;;;;;;5051282;28;8961;-74
2020/12/21 02:01:47;;;;;;;;;55.67;46.33;;;;;;;;5050876;28;9609;-75
2020/12/21 02:04:13;;;;;;;;;55.75;45.25;;;;;;;;5051205;28;9713;-75
2020/12/21 02:06:38;;;;;;;;;57.50;45.50;;;;;;;;5050678;28;8847;-75
2020/12/21 02:09:04;;;;;;;;;59.50;47.50;;;;;;;;5052821;28;8886;-76
2020/12/21 02:11:30;;;;;;;;;54.00;44.75;;;;;;;;5067440;28;8865;-76
2020/12/21 02:13:56;;;;;;;;;61.67;49.33;;;;;;;;5060784;28;8839;-74
2020/12/21 02:16:22;;;;;;;;;56.33;47.00;;;;;;;;5050462;28;10117;-76
2020/12/21 02:18:49;;;;;;;;;51.00;43.00;;;;;;;;5050347;28;8865;-76
2020/12/21 02:21:16;;;;;;;;;49.00;42.67;;;;;;;;5050813;28;8826;-76
2020/12/21 02:23:41;;;;;;;;;53.00;45.00;;;;;;;;5050445;28;8941;-76
2020/12/21 02:26:07;;;;;;;;;54.33;44.33;;;;;;;;5050955;28;8873;-77
2020/12/21 02:28:33;;;;;;;;;52.00;43.33;;;;;;;;5050333;28;8984;-76
2020/12/21 02:30:59;;;;;;;;;53.67;45.67;;;;;;;;5050719;28;9571;-76
2020/12/21 02:33:25;;;;;;;;;56.67;46.67;;;;;;;;5050266;28;8945;-77
2020/12/21 02:35:51;;;;;;;;;55.00;43.33;;;;;;;;5050365;28;8866;-76
2020/12/21 02:38:18;;;;;;;;;60.33;45.67;;;;;;;;5050384;28;8849;-75
2020/12/21 02:40:44;;;;;;;;;48.33;42.00;;;;;;;;5046385;28;8865;-75
2020/12/21 02:43:10;;;;;;;;;58.00;46.00;;;;;;;;5050407;28;8831;-75
2020/12/21 02:45:36;;;;;;;;;56.67;45.33;;;;;;;;5050022;28;8834;-76
2020/12/21 02:48:02;;;;;;;;;52.67;43.67;;;;;;;;5050415;28;8851;-76
2020/12/21 02:50:28;;;;;;;;;57.33;44.33;;;;;;;;5050106;28;8838;-75
2020/12/21 02:52:54;;;;;;;;;51.33;45.00;;;;;;;;5050264;28;8931;-76
2020/12/21 02:55:21;;;;;;;;;56.00;45.67;;;;;;;;5050220;28;8870;-75
2020/12/21 02:57:48;;;;;;;;;44.67;41.00;;;;;;;;5049970;28;9001;-75
2020/12/21 03:00:14;;;;;;;;;52.67;45.00;;;;;;;;5046137;28;8830;-76
2020/12/21 03:02:40;;;;;;;;;56.67;45.00;;;;;;;;5050105;28;8957;-76
2020/12/21 03:05:05;;;;;;;;;60.00;46.00;;;;;;;;5050091;28;8839;-75
2020/12/21 03:07:31;;;;;;;;;53.67;42.67;;;;;;;;5050014;28;8859;-77
2020/12/21 03:09:57;;;;;;;;;57.00;49.50;;;;;;;;5049776;28;8866;-75
2020/12/21 03:12:24;;;;;;;;;57.33;45.67;;;;;;;;5049930;28;8974;-75
2020/12/21 03:14:50;;;;;;;;;52.33;43.67;;;;;;;;5049794;28;8890;-75
2020/12/21 08:17:54;;;;;;;;;60.50;50.25;;;;;;;;5115849;27;13500;-67
2020/12/21 08:20:20;;;;;;;;;59.75;50.25;;;;;;;;5099202;28;8882;-68
2020/12/21 08:22:46;;;;;;;;;63.00;51.50;;;;;;;;5095857;28;8847;-70
2020/12/21 08:25:13;;;;;;;;;64.25;50.50;;;;;;;;5099021;28;8828;-70
2020/12/21 08:27:41;;;;;;;;;62.00;50.50;;;;;;;;5096324;28;8838;-69
2020/12/21 08:30:12;;;;;;;;;55.75;48.75;;;;;;;;5098320;28;8859;-70
2020/12/21 08:32:38;;;;;;;;;66.50;54.25;;;;;;;;5095981;28;9667;-69
2020/12/21 08:35:05;;;;;;;;;65.00;53.00;;;;;;;;5050619;27;10420;-70
2020/12/21 08:37:31;;;;;;;;;58.25;49.25;;;;;;;;5044195;28;8840;-70
2020/12/21 08:40:08;;;;;;;;;66.25;53.25;;;;;;;;5046347;28;9021;-68
2020/12/21 08:42:34;;;;;;;;;62.25;50.25;;;;;;;;5044887;28;8955;-71
2020/12/21 08:45:00;;;;;;;;;65.25;52.50;;;;;;;;5046806;28;8836;-71
2020/12/21 08:47:26;;;;;;;;;62.00;50.50;;;;;;;;5046589;28;8859;-70
2020/12/21 08:49:52;;;;;;;;;67.25;53.00;;;;;;;;5041872;28;8986;-70
2020/12/21 11:28:10;;;;;;;;;66.67;53.33;;;;;;;;5025689;27;13633;-72
2020/12/21 11:30:36;;;;;;;;;67.33;55.00;;;;;;;;5054042;28;9727;-72
2020/12/21 11:33:02;;;;;;;;;67.67;55.00;;;;;;;;5052768;28;8982;-70
2020/12/21 11:35:33;;;;;;;;;69.00;55.00;;;;;;;;5056178;28;8863;-72
2020/12/21 11:37:59;;;;;;;;;70.67;55.67;;;;;;;;5053172;28;9664;-71
2020/12/21 11:40:25;;;;;;;;;73.67;58.00;;;;;;;;5050790;28;8921;-72
2020/12/21 11:42:51;;;;;;;;;70.33;54.33;;;;;;;;5051727;28;8892;-73
2020/12/21 11:45:17;;;;;;;;;73.33;55.00;;;;;;;;5054331;28;8868;-72
2020/12/21 11:47:43;;;;;;;;;71.00;55.00;;;;;;;;5057519;28;8850;-68
2020/12/21 11:50:12;;;;;;;;;76.67;60.33;;;;;;;;5039807;28;9950;-71
2020/12/21 11:52:41;;;;;;;;;73.00;57.00;;;;;;;;5024370;28;8971;-71
2020/12/21 11:55:07;;;;;;;;;67.67;54.00;;;;;;;;5024836;28;8846;-70
2020/12/21 11:57:32;;;;;;;;;70.67;56.67;;;;;;;;5024038;28;8847;-71
2020/12/21 11:59:58;;;;;;;;;73.00;57.67;;;;;;;;5024910;28;8851;-72
2020/12/21 12:02:25;;;;;;;;;68.33;55.33;;;;;;;;5025125;28;8996;-69
2020/12/21 12:04:51;;;;;;;;;74.00;58.67;;;;;;;;5024886;28;8968;-69
2020/12/21 12:07:17;;;;;;;;;76.00;58.00;;;;;;;;5024706;28;8957;-70
2020/12/21 12:09:43;;;;;;;;;73.33;59.00;;;;;;;;5020003;28;8850;-68
2020/12/21 12:12:11;;;;;;;;;74.33;58.67;;;;;;;;5024771;28;8921;-70
2020/12/21 12:14:37;;;;;;;;;68.33;55.00;;;;;;;;5023807;28;8851;-72
2020/12/21 12:17:03;;;;;;;;;69.00;56.00;;;;;;;;5025042;28;8970;-74
2020/12/21 12:19:33;;;;;;;;;73.67;59.67;;;;;;;;5023953;28;8866;-73
2020/12/21 12:22:02;;;;;;;;;71.67;56.00;;;;;;;;5025212;28;8912;-75
2020/12/21 12:24:29;;;;;;;;;71.00;56.67;;;;;;;;5022278;28;8969;-73
2020/12/21 12:26:55;;;;;;;;;70.33;55.00;;;;;;;;5024503;28;8858;-73
2020/12/21 12:29:21;;;;;;;;;75.00;60.00;;;;;;;;5023550;28;8818;-72
2020/12/21 12:31:50;;;;;;;;;73.67;57.00;;;;;;;;5022611;28;8839;-72
2020/12/21 12:34:16;;;;;;;;;69.33;55.00;;;;;;;;5024769;28;8843;-72
2020/12/21 12:36:43;;;;;;;;;51.33;42.67;;;;;;;;5024860;28;9574;-72
2020/12/21 12:39:10;;;;;;;;;68.33;54.00;;;;;;;;5011526;28;8867;-72
2020/12/21 12:41:36;;;;;;;;;70.67;55.67;;;;;;;;5011348;28;8858;-73
2020/12/21 12:44:02;;;;;;;;;67.33;53.67;;;;;;;;5010809;28;8839;-73
2020/12/21 12:46:28;;;;;;;;;67.67;55.00;;;;;;;;5010657;28;8925;-73
2020/12/21 12:48:57;;;;;;;;;75.33;57.67;;;;;;;;5010531;28;8870;-72
2020/12/21 12:51:23;;;;;;;;;75.00;58.00;;;;;;;;5010996;28;8858;-73
2020/12/21 12:53:50;;;;;;;;;73.00;58.00;;;;;;;;5010208;28;8874;-72
2020/12/21 12:56:16;;;;;;;;;70.00;56.33;;;;;;;;5011040;28;8859;-73
2020/12/21 12:58:42;;;;;;;;;72.00;58.00;;;;;;;;5010573;28;8862;-72
2020/12/21 13:01:08;;;;;;;;;70.00;55.00;;;;;;;;5009701;28;9470;-73
2020/12/21 13:03:36;;;;;;;;;73.33;58.00;;;;;;;;5011386;28;8879;-69
2020/12/21 13:06:02;;;;;;;;;68.67;54.67;;;;;;;;5009970;28;8858;-69
2020/12/21 13:08:28;;;;;;;;;69.33;55.00;;;;;;;;5010497;28;8862;-72
2020/12/21 13:10:56;;;;;;;;;69.33;55.00;;;;;;;;5010606;28;8859;-71
2020/12/21 13:13:22;;;;;;;;;69.67;53.00;;;;;;;;5011064;28;9032;-70
2020/12/21 13:15:47;;;;;;;;;66.33;52.67;;;;;;;;4948031;28;11485;-69
2020/12/21 13:18:13;;;;;;;;;69.67;54.00;;;;;;;;5010507;28;8862;-71
2020/12/21 13:20:39;;;;;;;;;65.33;53.00;;;;;;;;5010268;28;8876;-70
2020/12/21 13:23:08;;;;;;;;;63.67;53.00;;;;;;;;5009389;28;8855;-71
2020/12/21 13:25:36;;;;;;;;;65.00;52.67;;;;;;;;5010338;28;8984;-71
2020/12/21 13:28:03;;;;;;;;;68.33;53.33;;;;;;;;5009542;28;8843;-72
2020/12/21 13:30:29;;;;;;;;;64.00;52.67;;;;;;;;5010620;28;8862;-71
2020/12/21 13:32:55;;;;;;;;;66.00;53.00;;;;;;;;5009611;28;9605;-71
2020/12/21 13:35:21;;;;;;;;;50.33;39.67;;;;;;;;5009697;28;9578;-74
2020/12/21 13:37:47;;;;;;;;;68.00;52.33;;;;;;;;5009394;28;8847;-73
2020/12/21 13:40:13;;;;;;;;;67.33;54.00;;;;;;;;5010037;28;8976;-77
2020/12/21 13:42:39;;;;;;;;;65.33;52.00;;;;;;;;5010252;28;8928;-72
2020/12/21 13:45:09;;;;;;;;;67.33;53.67;;;;;;;;5008793;28;8851;-73
2020/12/21 13:47:35;;;;;;;;;65.67;52.33;;;;;;;;5009517;28;8886;-73
2020/12/21 13:50:02;;;;;;;;;63.67;51.33;;;;;;;;4970594;28;12286;-73
2020/12/21 13:52:28;;;;;;;;;61.33;49.67;;;;;;;;4997283;28;11236;-74
2020/12/21 13:54:54;;;;;;;;;63.00;53.00;;;;;;;;5013347;28;8973;-73
2020/12/21 13:57:20;;;;;;;;;63.00;48.33;;;;;;;;5018525;28;8870;-74
2020/12/21 13:59:46;;;;;;;;;63.67;51.00;;;;;;;;5018641;28;8835;-74
2020/12/21 14:02:13;;;;;;;;;64.00;51.67;;;;;;;;5018230;28;8979;-71
2020/12/21 14:04:39;;;;;;;;;64.33;52.33;;;;;;;;5016512;28;8989;-72
2020/12/21 14:07:05;;;;;;;;;63.67;53.00;;;;;;;;5019390;28;8871;-71
2020/12/21 14:09:31;;;;;;;;;69.67;53.00;;;;;;;;5020650;28;9603;-72
2020/12/21 14:11:57;;;;;;;;;64.00;51.67;;;;;;;;5018261;28;8855;-72
2020/12/21 14:14:23;;;;;;;;;70.33;54.00;;;;;;;;5021401;28;8983;-77
2020/12/21 14:16:49;;;;;;;;;73.67;57.00;;;;;;;;5018188;28;8864;-76
2020/12/21 14:19:16;;;;;;;;;62.33;51.67;;;;;;;;5017328;28;8957;-77
2020/12/21 14:21:42;;;;;;;;;68.33;53.33;;;;;;;;5017352;28;8969;-76
2020/12/21 14:24:08;;;;;;;;;49.67;42.33;;;;;;;;5022841;28;8862;-76
2020/12/21 14:26:35;;;;;;;;;56.33;45.33;;;;;;;;5018336;28;8866;-76
2020/12/21 14:29:02;;;;;;;;;64.33;50.00;;;;;;;;5014943;28;8867;-76
2020/12/21 14:31:28;;;;;;;;;68.33;55.00;;;;;;;;5018749;28;8864;-72
2020/12/21 14:33:54;;;;;;;;;69.33;55.67;;;;;;;;5016331;28;8998;-75
2020/12/21 14:36:22;;;;;;;;;68.00;55.00;;;;;;;;5018372;28;8854;-74
2020/12/21 14:38:48;;;;;;;;;67.00;53.00;;;;;;;;5014665;28;8919;-74
2020/12/21 14:41:14;;;;;;;;;64.67;51.33;;;;;;;;5021418;28;8986;-75
2020/12/21 14:43:40;;;;;;;;;61.00;47.00;;;;;;;;5020901;28;8854;-74
2020/12/21 14:46:06;;;;;;;;;69.67;55.00;;;;;;;;5020415;28;8859;-75
2020/12/21 14:48:32;;;;;;;;;84.00;63.25;;;;;;;;5017415;28;8887;-72
2020/12/21 14:50:58;;;;;;;;;79.25;63.25;;;;;;;;5016904;28;8855;-72
2020/12/21 14:53:25;;;;;;;;;78.75;61.25;;;;;;;;5015305;28;8867;-72
2020/12/21 14:55:51;;;;;;;;;82.25;64.00;;;;;;;;5017906;28;9730;-71
2020/12/21 14:58:17;;;;;;;;;84.50;67.00;;;;;;;;5013937;28;8839;-72
2020/12/21 15:00:43;;;;;;;;;83.50;64.00;;;;;;;;5015877;28;8959;-72
2020/12/21 15:03:09;;;;;;;;;91.75;74.75;;;;;;;;5014029;28;8904;-72
2020/12/21 15:05:35;;;;;;;;;91.50;76.00;;;;;;;;5017196;28;8828;-71
2020/12/21 15:08:01;;;;;;;;;91.00;74.00;;;;;;;;5015726;28;8839;-72
2020/12/21 15:10:30;;;;;;;;;92.00;80.75;;;;;;;;5017391;28;8846;-72
2020/12/21 15:12:56;;;;;;;;;94.50;76.00;;;;;;;;5016010;28;9000;-71
2020/12/21 15:15:22;;;;;;;;;98.00;87.50;;;;;;;;5016498;28;8859;-70
2020/12/21 15:17:51;;;;;;;;;99.25;88.50;;;;;;;;5014681;28;8859;-71
2020/12/21 15:20:17;;;;;;;;;102.75;88.25;;;;;;;;5014116;28;8876;-71
2020/12/21 15:22:46;;;;;;;;;96.75;85.75;;;;;;;;5018152;28;8961;-74
2020/12/21 15:25:12;;;;;;;;;101.00;92.75;;;;;;;;5019028;28;8850;-74
2020/12/21 15:27:38;;;;;;;;;97.50;84.50;;;;;;;;5016315;28;8887;-74
2020/12/21 15:30:07;;;;;;;;;96.25;86.25;;;;;;;;5017894;28;10973;-74
2020/12/21 15:32:33;;;;;;;;;96.25;86.75;;;;;;;;5015837;28;9644;-74
2020/12/21 15:34:59;;;;;;;;;94.50;83.00;;;;;;;;5013961;28;8875;-73
2020/12/21 15:37:27;;;;;;;;;80.50;60.50;;;;;;;;5014192;28;9021;-74
2020/12/21 15:39:53;;;;;;;;;93.75;83.25;;;;;;;;5012286;28;8999;-71
2020/12/21 15:42:19;;;;;;;;;90.75;78.25;;;;;;;;5013862;28;8895;-67
2020/12/21 15:44:46;;;;;;;;;94.00;80.00;;;;;;;;5015180;28;8903;-73
2020/12/21 15:47:12;;;;;;;;;96.50;84.75;;;;;;;;5016270;28;9610;-73
2020/12/21 15:49:38;;;;;;;;;99.75;88.25;;;;;;;;5018493;28;8872;-73
2020/12/21 15:52:04;;;;;;;;;102.50;89.75;;;;;;;;5015902;28;9048;-73
2020/12/21 15:54:30;;;;;;;;;99.25;88.25;;;;;;;;5017893;28;8844;-74
2020/12/21 15:56:56;;;;;;;;;102.75;91.75;;;;;;;;5016583;28;8872;-77
2020/12/21 15:59:22;;;;;;;;;92.50;77.75;;;;;;;;5014685;28;8986;-72
2020/12/21 16:01:50;;;;;;;;;98.00;82.50;;;;;;;;5017488;28;8991;-72
2020/12/21 16:04:16;;;;;;;;;92.50;79.50;;;;;;;;5012754;28;8873;-74
2020/12/21 16:06:43;;;;;;;;;95.25;82.00;;;;;;;;5016294;28;8851;-72
2020/12/21 16:09:09;;;;;;;;;35.75;18.75;;;;;;;;5015563;28;8866;-72
2020/12/21 16:11:35;;;;;;;;;98.25;82.75;;;;;;;;5019355;28;8860;-73
2020/12/21 16:14:01;;;;;;;;;98.00;87.50;;;;;;;;5019332;28;8844;-73
2020/12/21 16:16:27;;;;;;;;;105.50;96.25;;;;;;;;5022425;28;8842;-72
2020/12/21 16:18:54;;;;;;;;;100.00;91.25;;;;;;;;5017645;28;8978;-73
2020/12/21 16:21:20;;;;;;;;;97.00;86.00;;;;;;;;5019245;28;8854;-74
2020/12/21 16:23:46;;;;;;;;;108.25;97.50;;;;;;;;5022598;28;8875;-74
2020/12/21 16:26:14;;;;;;;;;100.75;91.50;;;;;;;;5020112;28;8847;-74
2020/12/21 16:28:40;;;;;;;;;97.75;84.75;;;;;;;;5022568;28;8871;-72
2020/12/21 16:31:07;;;;;;;;;108.50;95.00;;;;;;;;5018729;28;8982;-72
2020/12/21 16:33:35;;;;;;;;;114.75;101.50;;;;;;;;5020585;28;9748;-73
2020/12/21 16:36:04;;;;;;;;;97.75;90.00;;;;;;;;5021361;28;8855;-73
2020/12/21 16:38:30;;;;;;;;;103.25;93.25;;;;;;;;5020983;28;8982;-72
2020/12/21 16:40:56;;;;;;;;;109.75;100.50;;;;;;;;5019052;28;8856;-72
2020/12/21 16:43:23;;;;;;;;;105.50;98.25;;;;;;;;5019915;28;8996;-72
2020/12/21 16:45:52;;;;;;;;;109.50;99.50;;;;;;;;5019847;28;9001;-73
2020/12/21 16:48:18;;;;;;;;;106.75;92.75;;;;;;;;5022550;28;8867;-72
2020/12/21 16:50:44;;;;;;;;;114.25;102.75;;;;;;;;5018162;28;8861;-72
2020/12/21 16:53:11;;;;;;;;;104.25;97.75;;;;;;;;5022920;28;8964;-72
2020/12/21 16:55:37;;;;;;;;;116.00;105.25;;;;;;;;5020099;28;8937;-73
2020/12/21 16:58:03;;;;;;;;;106.75;98.00;;;;;;;;5021381;28;8888;-72
2020/12/21 17:00:31;;;;;;;;;108.75;96.50;;;;;;;;5020499;28;8957;-74
2020/12/21 17:02:57;;;;;;;;;107.25;85.75;;;;;;;;5020597;28;8936;-75
2020/12/21 17:05:23;;;;;;;;;100.25;76.25;;;;;;;;5020156;28;8860;-76
2020/12/21 17:07:49;;;;;;;;;99.75;78.75;;;;;;;;5017761;28;8882;-74
2020/12/21 17:10:16;;;;;;;;;107.25;86.25;;;;;;;;5022737;28;8844;-73
2020/12/21 17:12:42;;;;;;;;;106.25;85.25;;;;;;;;5019308;28;9701;-74
2020/12/21 17:15:08;;;;;;;;;103.00;81.50;;;;;;;;5022242;28;8958;-75
2020/12/21 17:17:37;;;;;;;;;103.00;85.75;;;;;;;;5019671;28;8859;-74
2020/12/21 17:20:03;;;;;;;;;103.00;83.25;;;;;;;;5017063;28;9277;-74
2020/12/21 17:22:30;;;;;;;;;101.00;82.75;;;;;;;;5016650;28;8894;-76
2020/12/21 17:24:56;;;;;;;;;104.00;89.00;;;;;;;;5015605;28;8863;-76
2020/12/21 17:27:23;;;;;;;;;99.75;82.75;;;;;;;;5017738;28;8903;-75
2020/12/21 17:29:49;;;;;;;;;105.00;89.50;;;;;;;;5015648;28;8998;-73
2020/12/21 17:32:15;;;;;;;;;105.00;89.00;;;;;;;;5016521;28;8854;-74
2020/12/21 17:34:41;;;;;;;;;105.75;90.75;;;;;;;;5015472;28;8989;-66
2020/12/21 17:37:07;;;;;;;;;111.50;95.75;;;;;;;;5011778;28;8886;-66
2020/12/21 17:39:33;;;;;;;;;102.00;90.50;;;;;;;;5011651;28;8969;-66
2020/12/21 17:41:59;;;;;;;;;102.25;87.00;;;;;;;;5019314;28;8882;-66
2020/12/21 17:44:25;;;;;;;;;100.50;82.25;;;;;;;;5020500;28;8880;-69
2020/12/21 17:46:51;;;;;;;;;98.25;77.00;;;;;;;;5018959;28;8890;-69
2020/12/21 17:49:17;;;;;;;;;96.00;74.00;;;;;;;;5021678;28;8971;-69
2020/12/21 17:51:43;;;;;;;;;97.25;75.00;;;;;;;;5019092;28;8897;-69
2020/12/21 17:54:09;;;;;;;;;91.75;70.00;;;;;;;;5022999;28;9643;-69
2020/12/21 17:56:35;;;;;;;;;92.75;70.75;;;;;;;;5019911;28;8985;-69
2020/12/21 17:59:01;;;;;;;;;91.25;70.75;;;;;;;;5021112;28;8862;-69
2020/12/21 18:01:28;;;;;;;;;94.00;72.25;;;;;;;;5021165;28;9564;-70
2020/12/21 18:03:54;;;;;;;;;93.00;71.75;;;;;;;;5020235;28;8884;-70
2020/12/21 18:06:20;;;;;;;;;90.50;67.25;;;;;;;;5019540;28;8852;-71
2020/12/21 18:08:46;;;;;;;;;92.50;72.25;;;;;;;;5018918;28;8844;-70
2020/12/21 18:11:12;;;;;;;;;94.25;70.50;;;;;;;;5019202;28;9617;-70
2020/12/21 18:13:38;;;;;;;;;90.75;72.50;;;;;;;;5022106;28;8859;-69
2020/12/21 18:16:04;;;;;;;;;94.75;74.75;;;;;;;;5019612;28;8986;-69
2020/12/21 18:18:30;;;;;;;;;85.75;68.50;;;;;;;;5021508;28;8866;-71
2020/12/21 18:20:56;;;;;;;;;93.75;71.25;;;;;;;;5016675;28;9564;-71
2020/12/21 18:23:22;;;;;;;;;103.25;85.50;;;;;;;;5021379;28;8878;-70
2020/12/21 18:25:49;;;;;;;;;103.50;88.75;;;;;;;;5019114;28;8862;-70
2020/12/21 18:28:16;;;;;;;;;95.50;72.00;;;;;;;;5021891;28;8966;-70
2020/12/21 18:30:42;;;;;;;;;95.00;71.50;;;;;;;;5018645;28;9641;-71
2020/12/21 18:33:08;;;;;;;;;99.75;77.00;;;;;;;;5022163;28;8828;-70
2020/12/21 18:35:35;;;;;;;;;95.75;71.25;;;;;;;;5019102;28;8815;-70
2020/12/21 18:38:01;;;;;;;;;92.50;71.50;;;;;;;;5021000;28;8836;-71
2020/12/21 18:40:27;;;;;;;;;90.50;70.00;;;;;;;;5020590;28;9548;-72
2020/12/21 18:42:53;;;;;;;;;97.00;75.25;;;;;;;;5016484;28;8903;-70
2020/12/21 18:45:19;;;;;;;;;95.00;71.75;;;;;;;;5015957;28;8882;-68
2020/12/21 18:47:45;;;;;;;;;96.00;73.25;;;;;;;;5013106;28;9005;-70
2020/12/21 18:50:11;;;;;;;;;82.75;64.75;;;;;;;;5015799;28;8989;-69
2020/12/21 18:52:37;;;;;;;;;95.00;72.75;;;;;;;;5014688;28;8975;-69
2020/12/21 18:55:03;;;;;;;;;107.00;90.75;;;;;;;;5014847;28;8876;-69
2020/12/21 18:57:29;;;;;;;;;100.25;77.25;;;;;;;;5017691;28;8860;-69
2020/12/21 18:59:55;;;;;;;;;96.75;73.50;;;;;;;;5014552;28;8870;-67
2020/12/21 19:02:21;;;;;;;;;104.00;89.00;;;;;;;;5019376;28;8852;-68
2020/12/21 19:04:47;;;;;;;;;107.75;91.00;;;;;;;;5016701;28;8969;-68
2020/12/21 19:07:13;;;;;;;;;106.25;89.75;;;;;;;;5019760;28;8836;-67
2020/12/21 19:09:40;;;;;;;;;109.00;89.25;;;;;;;;5017023;28;9582;-68
2020/12/21 19:12:06;;;;;;;;;101.50;84.00;;;;;;;;5015438;28;8828;-69
2020/12/21 19:14:31;;;;;;;;;107.25;92.25;;;;;;;;5017837;28;8871;-67
2020/12/21 19:16:57;;;;;;;;;104.00;90.00;;;;;;;;5018312;28;9564;-67
2020/12/21 19:19:23;;;;;;;;;107.25;88.50;;;;;;;;5016984;28;8858;-68
2020/12/21 19:21:49;;;;;;;;;101.25;85.25;;;;;;;;5015518;28;8858;-67
2020/12/21 19:24:15;;;;;;;;;103.25;86.50;;;;;;;;5014210;28;8881;-68
2020/12/21 19:26:42;;;;;;;;;102.00;88.00;;;;;;;;5013587;28;9595;-68
2020/12/21 19:29:08;;;;;;;;;101.50;80.50;;;;;;;;5014546;28;9073;-68
2020/12/21 19:31:35;;;;;;;;;107.25;88.50;;;;;;;;5016943;28;8852;-68
2020/12/21 19:34:01;;;;;;;;;111.00;97.00;;;;;;;;5014268;28;9702;-68
2020/12/21 19:36:27;;;;;;;;;110.00;95.00;;;;;;;;5015945;28;8851;-68
2020/12/21 19:38:53;;;;;;;;;110.25;98.25;;;;;;;;5016511;28;8840;-67
2020/12/21 19:41:19;;;;;;;;;112.00;97.25;;;;;;;;5016435;28;9642;-67
2020/12/21 19:43:48;;;;;;;;;111.25;100.25;;;;;;;;5016943;28;8867;-68
2020/12/21 19:46:13;;;;;;;;;102.50;87.25;;;;;;;;5012335;28;8842;-67
2020/12/21 19:48:39;;;;;;;;;107.50;94.25;;;;;;;;5017732;28;8862;-68
2020/12/21 19:51:07;;;;;;;;;115.50;99.00;;;;;;;;5020489;28;8957;-67
2020/12/21 19:53:33;;;;;;;;;112.75;102.75;;;;;;;;5018819;28;8863;-68
2020/12/21 19:56:00;;;;;;;;;114.75;101.00;;;;;;;;5020841;28;8866;-68
2020/12/21 19:58:26;;;;;;;;;121.00;108.75;;;;;;;;5018783;28;8986;-68
2020/12/21 20:00:53;;;;;;;;;121.25;105.75;;;;;;;;5018157;28;8862;-67
2020/12/21 20:03:19;;;;;;;;;123.50;107.25;;;;;;;;5018766;28;8989;-67
2020/12/21 20:05:47;;;;;;;;;98.00;73.75;;;;;;;;5019170;28;8869;-68
2020/12/21 20:08:13;;;;;;;;;115.25;102.25;;;;;;;;5020567;28;8848;-68
2020/12/21 20:10:39;;;;;;;;;116.75;106.00;;;;;;;;5018125;28;8862;-67
2020/12/21 20:13:06;;;;;;;;;122.00;109.00;;;;;;;;5017595;28;8856;-68
2020/12/21 20:15:32;;;;;;;;;113.75;103.75;;;;;;;;5021191;28;8963;-67
2020/12/21 20:17:58;;;;;;;;;121.50;107.00;;;;;;;;5021503;28;9635;-68
2020/12/21 20:20:24;;;;;;;;;119.00;102.25;;;;;;;;4970828;28;10521;-67
2020/12/21 20:22:52;;;;;;;;;128.50;110.75;;;;;;;;4996549;28;8857;-68
2020/12/21 20:25:18;;;;;;;;;113.75;100.25;;;;;;;;5003374;28;8970;-68
2020/12/21 20:27:44;;;;;;;;;118.50;107.00;;;;;;;;4998817;28;8862;-68
2020/12/21 20:30:10;;;;;;;;;117.50;105.00;;;;;;;;4998057;28;8941;-68
2020/12/21 20:32:36;;;;;;;;;120.00;100.00;;;;;;;;4998191;28;8952;-68
2020/12/21 20:35:04;;;;;;;;;110.25;95.00;;;;;;;;5001457;28;10761;-69
2020/12/21 20:37:32;;;;;;;;;103.50;89.50;;;;;;;;5002012;28;8853;-69
2020/12/21 20:39:58;;;;;;;;;111.25;97.50;;;;;;;;5001525;28;8849;-69
2020/12/21 20:42:24;;;;;;;;;107.50;93.00;;;;;;;;5002082;28;9587;-71
2020/12/21 20:44:50;;;;;;;;;114.75;100.25;;;;;;;;5000464;28;8857;-67
2020/12/21 20:47:16;;;;;;;;;111.75;98.25;;;;;;;;5002672;28;9086;-67
2020/12/21 20:49:43;;;;;;;;;109.00;96.00;;;;;;;;5000407;28;8884;-67
2020/12/21 20:52:11;;;;;;;;;106.25;93.50;;;;;;;;4996861;28;8900;-67
2020/12/21 20:54:36;;;;;;;;;120.00;106.00;;;;;;;;5000743;28;8884;-67
2020/12/21 20:57:03;;;;;;;;;119.00;103.25;;;;;;;;4999137;28;8881;-67
2020/12/21 20:59:29;;;;;;;;;128.00;109.50;;;;;;;;4999512;28;9020;-67
2020/12/21 21:01:55;;;;;;;;;128.50;114.25;;;;;;;;4998363;28;8846;-68
2020/12/21 21:04:22;;;;;;;;;125.50;110.25;;;;;;;;5001656;28;8955;-67
2020/12/21 21:06:48;;;;;;;;;119.75;109.25;;;;;;;;4998480;28;8846;-67
2020/12/21 21:09:15;;;;;;;;;123.50;111.00;;;;;;;;4999567;28;8831;-66
2020/12/21 21:11:41;;;;;;;;;131.25;112.25;;;;;;;;4994834;28;8935;-67
2020/12/21 21:14:07;;;;;;;;;131.75;120.00;;;;;;;;4995472;28;8889;-68
2020/12/21 21:16:42;;;;;;;;;132.00;116.75;;;;;;;;5000694;28;8986;-69
2020/12/21 21:19:08;;;;;;;;;124.25;112.00;;;;;;;;4999422;28;9048;-69
2020/12/21 21:21:38;;;;;;;;;132.50;116.00;;;;;;;;5000390;28;8945;-70
2020/12/21 21:24:04;;;;;;;;;143.25;125.25;;;;;;;;4998744;28;8861;-67
2020/12/21 21:26:31;;;;;;;;;124.00;105.75;;;;;;;;4996150;28;8875;-66
2020/12/21 21:28:57;;;;;;;;;120.50;108.50;;;;;;;;4992588;28;8841;-65
2020/12/21 21:31:23;;;;;;;;;120.75;111.50;;;;;;;;4999078;28;9628;-66
2020/12/21 21:33:49;;;;;;;;;133.25;117.25;;;;;;;;4999209;28;9001;-66
2020/12/21 21:36:15;;;;;;;;;118.75;112.75;;;;;;;;4996469;28;8884;-66
2020/12/21 21:38:41;;;;;;;;;80.50;60.00;;;;;;;;4996310;28;9048;-68
2020/12/21 21:41:07;;;;;;;;;127.50;110.25;;;;;;;;4997435;28;8876;-66
2020/12/21 21:43:36;;;;;;;;;122.00;108.75;;;;;;;;4993420;28;8895;-67
2020/12/21 21:46:02;;;;;;;;;112.75;100.00;;;;;;;;4994433;28;8865;-66
2020/12/21 21:48:28;;;;;;;;;117.00;110.25;;;;;;;;4996130;28;8872;-66
2020/12/21 21:50:55;;;;;;;;;121.50;110.25;;;;;;;;4998646;28;8838;-66
2020/12/21 21:53:21;;;;;;;;;125.75;107.75;;;;;;;;4999543;28;8878;-67
2020/12/21 21:55:47;;;;;;;;;127.25;109.50;;;;;;;;4998211;28;8939;-66